createdAt,value
2022-08-14T00:00:33.243Z,50.584156
2022-08-14T00:01:33.254Z,50.584198
2022-08-14T00:02:33.197Z,50.584137
2022-08-14T00:03:33.259Z,50.584129
2022-08-14T00:04:36.127Z,50.584202
2022-08-14T00:05:34.161Z,50.584187
2022-08-14T00:06:33.142Z,50.584129
2022-08-14T00:07:33.116Z,50.584129
2022-08-14T00:08:42.041Z,50.584110
2022-08-14T00:09:34.109Z,50.584156
2022-08-14T00:10:50.377Z,50.584167
2022-08-14T00:11:34.058Z,50.584206
2022-08-14T00:12:39.157Z,50.584156
2022-08-14T00:13:34.098Z,50.584187
2022-08-14T00:14:33.079Z,50.584156
2022-08-14T00:15:43.414Z,50.584141
2022-08-14T00:16:41.561Z,50.584167
2022-08-14T00:17:37.877Z,50.584126
2022-08-14T00:19:06.152Z,50.584091
2022-08-14T00:19:33.837Z,50.584106
2022-08-14T00:20:35.927Z,50.584145
2022-08-14T00:21:33.888Z,50.584129
2022-08-14T00:22:56.629Z,50.584152
2022-08-14T00:23:33.895Z,50.584095
2022-08-14T00:24:32.849Z,50.584118
2022-08-14T00:25:42.332Z,50.584023
2022-08-14T00:26:33.799Z,50.584038
2022-08-14T00:27:37.518Z,50.583984
2022-08-14T00:28:35.121Z,50.583965
2022-08-14T00:29:33.229Z,50.584045
2022-08-14T00:30:34.633Z,50.584000
2022-08-14T00:31:35.282Z,50.584011
2022-08-14T00:32:52.688Z,50.583931
2022-08-14T00:33:50.989Z,50.584015
2022-08-14T00:34:36.655Z,50.583992
2022-08-14T00:36:36.194Z,50.583984
2022-08-14T00:36:36.955Z,50.583950
2022-08-14T00:37:33.626Z,50.584015
2022-08-14T00:38:34.920Z,50.584042
2022-08-14T00:39:32.763Z,50.584007
2022-08-14T00:40:35.597Z,50.584072
2022-08-14T00:41:33.436Z,50.584057
2022-08-14T00:42:55.119Z,50.584110
2022-08-14T00:43:33.530Z,50.584053
2022-08-14T00:44:33.361Z,50.583988
2022-08-14T00:45:32.433Z,50.584053
2022-08-14T00:46:33.278Z,50.584053
2022-08-14T00:47:32.413Z,50.584057
2022-08-14T00:48:34.850Z,50.584042
2022-08-14T00:49:38.232Z,50.584087
2022-08-14T00:50:33.359Z,50.583927
2022-08-14T00:51:34.778Z,50.583981
2022-08-14T00:52:33.380Z,50.583981
2022-08-14T00:53:32.279Z,50.584091
2022-08-14T00:54:32.323Z,50.583969
2022-08-14T00:55:32.248Z,50.583935
2022-08-14T00:56:32.261Z,50.584068
2022-08-14T00:57:32.207Z,50.583961
2022-08-14T00:58:33.052Z,50.584023
2022-08-14T00:59:32.299Z,50.584007
2022-08-14T01:00:37.164Z,50.584007
2022-08-14T01:01:33.298Z,50.584019
2022-08-14T01:02:53.834Z,50.584003
2022-08-14T01:03:33.120Z,50.584030
2022-08-14T01:04:38.281Z,50.584030
2022-08-14T01:05:41.705Z,50.584038
2022-08-14T01:06:34.171Z,50.583992
2022-08-14T01:07:38.909Z,50.583973
2022-08-14T01:08:57.837Z,50.584003
2022-08-14T01:09:33.010Z,50.584042
2022-08-14T01:10:38.259Z,50.584095
2022-08-14T01:11:36.131Z,50.584042
2022-08-14T01:12:31.932Z,50.583992
2022-08-14T01:13:42.171Z,50.583973
2022-08-14T01:14:32.926Z,50.584038
2022-08-14T01:15:58.504Z,50.584003
2022-08-14T01:16:32.797Z,50.584080
2022-08-14T01:17:31.919Z,50.584145
2022-08-14T01:18:31.856Z,50.584084
2022-08-14T01:19:31.809Z,50.584106
2022-08-14T01:20:31.843Z,50.584114
2022-08-14T01:21:31.808Z,50.584145
2022-08-14T01:22:31.789Z,50.584141
2022-08-14T01:23:41.924Z,50.584110
2022-08-14T01:24:34.641Z,50.584141
2022-08-14T01:25:31.786Z,50.584110
2022-08-14T01:26:35.086Z,50.584141
2022-08-14T01:27:52.510Z,50.584114
2022-08-14T01:28:46.109Z,50.584084
2022-08-14T01:29:58.260Z,50.584076
2022-08-14T01:30:37.919Z,50.584084
2022-08-14T01:31:32.611Z,50.584076
2022-08-14T01:32:31.599Z,50.584106
2022-08-14T01:35:15.578Z,50.584099
2022-08-14T01:35:20.113Z,50.584122
2022-08-14T01:36:03.671Z,50.584129
2022-08-14T01:36:32.447Z,50.584118
2022-08-14T01:37:31.676Z,50.584072
2022-08-14T01:38:31.515Z,50.584084
2022-08-14T01:39:31.467Z,50.584095
2022-08-14T01:40:36.140Z,50.584114
2022-08-14T01:41:32.506Z,50.584114
2022-08-14T01:42:36.039Z,50.584084
2022-08-14T01:43:35.927Z,50.584091
2022-08-14T01:44:33.890Z,50.584080
2022-08-14T01:45:40.797Z,50.584087
2022-08-14T01:46:33.450Z,50.584053
2022-08-14T01:47:37.101Z,50.584076
2022-08-14T01:48:32.339Z,50.584034
2022-08-14T01:49:35.480Z,50.584064
2022-08-14T01:50:31.541Z,50.584061
2022-08-14T01:51:31.287Z,50.584076
2022-08-14T01:52:34.319Z,50.584061
2022-08-14T01:53:33.491Z,50.584080
2022-08-14T01:54:37.791Z,50.584087
2022-08-14T01:55:32.751Z,50.584091
2022-08-14T01:56:31.235Z,50.584091
2022-08-14T01:57:49.725Z,50.584049
2022-08-14T01:58:32.062Z,50.584064
2022-08-14T01:59:37.641Z,50.584019
2022-08-14T02:00:36.384Z,50.584007
2022-08-14T02:01:31.184Z,50.584011
2022-08-14T02:02:31.002Z,50.584030
2022-08-14T02:03:32.025Z,50.584003
2022-08-14T02:04:54.822Z,50.584019
2022-08-14T02:05:35.657Z,50.584064
2022-08-14T02:06:33.776Z,50.584003
2022-08-14T02:07:44.957Z,50.584064
2022-08-14T02:08:34.808Z,50.584068
2022-08-14T02:09:31.980Z,50.584080
2022-08-14T02:10:30.935Z,50.584064
2022-08-14T02:11:31.260Z,50.584019
2022-08-14T02:12:30.971Z,50.584099
2022-08-14T02:13:30.875Z,50.584129
2022-08-14T02:14:31.384Z,50.584076
2022-08-14T02:15:30.832Z,50.584068
2022-08-14T02:16:30.882Z,50.584061
2022-08-14T02:17:30.996Z,50.584110
2022-08-14T02:18:31.952Z,50.584061
2022-08-14T02:19:31.798Z,50.584076
2022-08-14T02:20:30.829Z,50.584053
2022-08-14T02:21:30.750Z,50.584019
2022-08-14T02:22:33.114Z,50.584030
2022-08-14T02:23:36.188Z,50.584072
2022-08-14T02:24:40.261Z,50.584038
2022-08-14T02:25:31.665Z,50.584057
2022-08-14T02:26:30.854Z,50.584007
2022-08-14T02:28:24.820Z,50.584076
2022-08-14T02:28:57.460Z,50.584080
2022-08-14T02:29:56.136Z,50.584076
2022-08-14T02:30:31.609Z,50.584030
2022-08-14T02:31:42.208Z,50.584023
2022-08-14T02:32:36.354Z,50.584122
2022-08-14T02:33:33.595Z,50.584118
2022-08-14T02:34:30.568Z,50.584015
2022-08-14T02:35:32.703Z,50.584038
2022-08-14T02:37:03.384Z,50.584019
2022-08-14T02:37:46.428Z,50.583973
2022-08-14T02:38:35.163Z,50.583904
2022-08-14T02:39:30.357Z,50.583946
2022-08-14T02:40:32.091Z,50.584057
2022-08-14T02:41:35.029Z,50.584003
2022-08-14T02:42:47.282Z,50.584049
2022-08-14T02:43:37.329Z,50.584068
2022-08-14T02:44:31.345Z,50.584072
2022-08-14T02:45:33.623Z,50.584064
2022-08-14T02:46:32.227Z,50.584084
2022-08-14T02:47:30.184Z,50.584064
2022-08-14T02:49:01.437Z,50.584061
2022-08-14T02:49:33.065Z,50.584015
2022-08-14T02:50:33.530Z,50.584011
2022-08-14T02:51:30.387Z,50.584011
2022-08-14T02:52:57.598Z,50.584042
2022-08-14T02:53:31.458Z,50.584045
2022-08-14T02:54:30.149Z,50.584141
2022-08-14T02:55:30.055Z,50.584160
2022-08-14T02:57:16.758Z,50.584129
2022-08-14T02:57:39.167Z,50.584133
2022-08-14T02:58:31.255Z,50.584171
2022-08-14T02:59:33.421Z,50.584164
2022-08-14T03:00:29.963Z,50.584156
2022-08-14T03:01:31.309Z,50.584198
2022-08-14T03:02:48.851Z,50.584194
2022-08-14T03:03:31.899Z,50.584133
2022-08-14T03:04:29.900Z,50.584133
2022-08-14T03:05:29.877Z,50.584213
2022-08-14T03:06:35.051Z,50.584187
2022-08-14T03:07:30.918Z,50.584240
2022-08-14T03:08:29.826Z,50.584148
2022-08-14T03:09:41.998Z,50.584133
2022-08-14T03:10:32.239Z,50.584106
2022-08-14T03:11:34.674Z,50.584106
2022-08-14T03:12:32.623Z,50.584129
2022-08-14T03:13:29.800Z,50.584129
2022-08-14T03:14:29.722Z,50.584110
2022-08-14T03:15:29.687Z,50.584141
2022-08-14T03:16:29.726Z,50.584129
2022-08-14T03:17:31.874Z,50.584122
2022-08-14T03:18:32.734Z,50.584095
2022-08-14T03:19:29.641Z,50.584145
2022-08-14T03:20:29.623Z,50.584179
2022-08-14T03:21:29.716Z,50.584179
2022-08-14T03:22:29.948Z,50.584209
2022-08-14T03:23:29.682Z,50.584198
2022-08-14T03:24:29.512Z,50.584202
2022-08-14T03:25:29.579Z,50.584167
2022-08-14T03:26:30.264Z,50.584171
2022-08-14T03:27:35.257Z,50.584198
2022-08-14T03:28:33.595Z,50.584187
2022-08-14T03:29:29.791Z,50.584183
2022-08-14T03:30:39.912Z,50.584209
2022-08-14T03:31:30.445Z,50.584217
2022-08-14T03:32:30.427Z,50.584244
2022-08-14T03:33:37.769Z,50.584175
2022-08-14T03:34:47.940Z,50.584179
2022-08-14T03:35:30.857Z,50.584213
2022-08-14T03:37:51.459Z,50.584141
2022-08-14T03:39:09.239Z,50.584084
2022-08-14T03:39:13.130Z,50.584045
2022-08-14T03:39:30.285Z,50.584091
2022-08-14T03:40:29.258Z,50.584053
2022-08-14T03:41:33.132Z,50.583969
2022-08-14T03:42:31.311Z,50.584045
2022-08-14T03:43:32.465Z,50.584053
2022-08-14T03:45:20.037Z,50.584099
2022-08-14T03:45:34.930Z,50.584057
2022-08-14T03:46:52.139Z,50.584091
2022-08-14T03:47:46.380Z,50.584053
2022-08-14T03:48:31.441Z,50.584053
2022-08-14T03:49:30.288Z,50.583984
2022-08-14T03:50:31.288Z,50.584087
2022-08-14T03:51:29.044Z,50.584038
2022-08-14T03:52:38.765Z,50.584049
2022-08-14T03:53:31.443Z,50.584076
2022-08-14T03:54:30.008Z,50.584103
2022-08-14T03:55:30.521Z,50.584099
2022-08-14T03:56:28.974Z,50.583969
2022-08-14T03:57:29.066Z,50.584091
2022-08-14T03:58:36.271Z,50.584137
2022-08-14T03:59:29.927Z,50.584072
2022-08-14T04:00:44.486Z,50.584072
2022-08-14T04:01:39.033Z,50.583996
2022-08-14T04:02:32.469Z,50.583942
2022-08-14T04:03:29.056Z,50.583897
2022-08-14T04:04:28.825Z,50.584164
2022-08-14T04:05:28.892Z,50.584171
2022-08-14T04:06:32.174Z,50.584164
2022-08-14T04:07:28.776Z,50.584042
2022-08-14T04:08:31.820Z,50.584122
2022-08-14T04:09:28.758Z,50.584007
2022-08-14T04:10:32.250Z,50.584057
2022-08-14T04:11:28.698Z,50.584064
2022-08-14T04:12:28.691Z,50.584106
2022-08-14T04:13:31.973Z,50.584103
2022-08-14T04:14:29.659Z,50.584126
2022-08-14T04:15:28.723Z,50.584187
2022-08-14T04:16:31.710Z,50.584209
2022-08-14T04:17:28.604Z,50.584167
2022-08-14T04:18:28.619Z,50.584229
2022-08-14T04:19:33.109Z,50.584190
2022-08-14T04:20:29.562Z,50.584213
2022-08-14T04:21:28.630Z,50.584206
2022-08-14T04:22:28.564Z,50.584129
2022-08-14T04:23:32.909Z,50.584145
2022-08-14T04:24:28.525Z,50.584190
2022-08-14T04:25:28.566Z,50.584209
2022-08-14T04:26:42.372Z,50.584156
2022-08-14T04:27:29.441Z,50.584076
2022-08-14T04:29:07.957Z,50.584080
2022-08-14T04:29:29.451Z,50.584167
2022-08-14T04:30:30.784Z,50.584129
2022-08-14T04:33:03.021Z,50.584160
2022-08-14T04:33:10.697Z,50.584122
2022-08-14T04:33:29.408Z,50.584156
2022-08-14T04:34:28.445Z,50.584126
2022-08-14T04:35:50.752Z,50.584175
2022-08-14T04:36:29.287Z,50.584091
2022-08-14T04:37:28.396Z,50.584099
2022-08-14T04:38:37.162Z,50.584103
2022-08-14T04:39:29.305Z,50.584129
2022-08-14T04:40:28.194Z,50.584042
2022-08-14T04:41:30.290Z,50.584026
2022-08-14T04:42:28.180Z,50.584122
2022-08-14T04:43:38.798Z,50.584156
2022-08-14T04:44:36.601Z,50.584129
2022-08-14T04:45:29.660Z,50.584049
2022-08-14T04:46:56.351Z,50.584129
2022-08-14T04:47:30.783Z,50.584137
2022-08-14T04:48:38.692Z,50.584137
2022-08-14T04:49:29.058Z,50.584087
2022-08-14T04:50:33.903Z,50.584164
2022-08-14T04:51:30.178Z,50.584137
2022-08-14T04:52:28.968Z,50.584080
2022-08-14T04:53:35.659Z,50.584106
2022-08-14T04:54:28.954Z,50.584171
2022-08-14T04:55:28.100Z,50.584114
2022-08-14T04:56:31.476Z,50.584084
2022-08-14T04:57:28.897Z,50.584064
2022-08-14T04:58:32.950Z,50.584133
2022-08-14T04:59:28.883Z,50.584141
2022-08-14T05:00:27.850Z,50.584167
2022-08-14T05:01:27.986Z,50.584167
2022-08-14T05:02:27.870Z,50.584167
2022-08-14T05:03:28.118Z,50.584133
2022-08-14T05:04:27.808Z,50.584076
2022-08-14T05:05:27.857Z,50.584061
2022-08-14T05:06:37.154Z,50.584080
2022-08-14T05:07:46.484Z,50.584068
2022-08-14T05:08:50.577Z,50.584049
2022-08-14T05:09:30.569Z,50.584076
2022-08-14T05:10:32.241Z,50.584061
2022-08-14T05:11:27.653Z,50.584072
2022-08-14T05:13:11.078Z,50.584110
2022-08-14T05:13:30.693Z,50.584068
2022-08-14T05:14:43.280Z,50.584095
2022-08-14T05:15:28.634Z,50.584057
2022-08-14T05:16:27.577Z,50.584106
2022-08-14T05:17:39.248Z,50.584076
2022-08-14T05:19:16.709Z,50.584072
2022-08-14T05:19:29.433Z,50.584072
2022-08-14T05:21:54.234Z,50.584003
2022-08-14T05:21:59.659Z,50.584015
2022-08-14T05:22:28.452Z,50.584057
2022-08-14T05:23:27.517Z,50.584068
2022-08-14T05:24:27.439Z,50.584103
2022-08-14T05:25:30.902Z,50.584064
2022-08-14T05:26:28.402Z,50.583977
2022-08-14T05:27:30.933Z,50.584061
2022-08-14T05:28:27.348Z,50.584084
2022-08-14T05:29:27.551Z,50.584122
2022-08-14T05:30:27.340Z,50.584011
2022-08-14T05:31:30.208Z,50.584038
2022-08-14T05:32:28.460Z,50.584084
2022-08-14T05:33:27.327Z,50.584053
2022-08-14T05:34:28.887Z,50.583973
2022-08-14T05:35:27.270Z,50.583996
2022-08-14T05:36:27.268Z,50.584015
2022-08-14T05:37:27.332Z,50.584045
2022-08-14T05:38:31.915Z,50.584064
2022-08-14T05:39:27.169Z,50.584057
2022-08-14T05:40:27.117Z,50.584015
2022-08-14T05:41:27.663Z,50.584106
2022-08-14T05:42:32.269Z,50.584061
2022-08-14T05:43:41.390Z,50.584019
2022-08-14T05:44:30.655Z,50.583969
2022-08-14T05:45:27.118Z,50.584007
2022-08-14T05:46:27.039Z,50.584091
2022-08-14T05:47:28.920Z,50.584126
2022-08-14T05:48:33.572Z,50.584148
2022-08-14T05:49:33.757Z,50.584156
2022-08-14T05:50:29.224Z,50.584110
2022-08-14T05:51:27.052Z,50.584061
2022-08-14T05:52:38.672Z,50.584095
2022-08-14T05:53:27.890Z,50.584072
2022-08-14T05:54:27.885Z,50.584049
2022-08-14T05:55:27.864Z,50.583950
2022-08-14T05:56:26.867Z,50.584015
2022-08-14T05:57:26.922Z,50.584019
2022-08-14T05:58:33.860Z,50.584042
2022-08-14T05:59:36.732Z,50.584034
2022-08-14T06:00:29.903Z,50.584038
2022-08-14T06:01:26.925Z,50.584045
2022-08-14T06:02:26.766Z,50.584064
2022-08-14T06:03:26.827Z,50.584026
2022-08-14T06:04:26.699Z,50.584011
2022-08-14T06:05:29.033Z,50.584053
2022-08-14T06:06:26.681Z,50.584045
2022-08-14T06:07:26.762Z,50.584019
2022-08-14T06:08:36.042Z,50.584000
2022-08-14T06:09:27.610Z,50.584003
2022-08-14T06:10:28.176Z,50.584023
2022-08-14T06:11:30.693Z,50.584023
2022-08-14T06:12:55.131Z,50.583988
2022-08-14T06:13:31.465Z,50.583984
2022-08-14T06:14:26.531Z,50.583954
2022-08-14T06:15:30.086Z,50.584049
2022-08-14T06:16:26.494Z,50.583977
2022-08-14T06:17:26.541Z,50.583870
2022-08-14T06:18:26.493Z,50.583809
2022-08-14T06:19:27.504Z,50.583866
2022-08-14T06:20:26.478Z,50.583965
2022-08-14T06:21:26.482Z,50.584042
2022-08-14T06:22:26.403Z,50.584023
2022-08-14T06:23:26.527Z,50.583969
2022-08-14T06:24:26.328Z,50.583965
2022-08-14T06:25:27.233Z,50.583984
2022-08-14T06:26:30.419Z,50.583920
2022-08-14T06:27:26.389Z,50.583920
2022-08-14T06:28:28.083Z,50.583942
2022-08-14T06:29:26.362Z,50.583965
2022-08-14T06:30:30.382Z,50.584015
2022-08-14T06:31:27.222Z,50.584042
2022-08-14T06:32:38.818Z,50.584019
2022-08-14T06:33:45.666Z,50.583992
2022-08-14T06:35:10.675Z,50.584000
2022-08-14T06:35:27.169Z,50.584007
2022-08-14T06:36:26.137Z,50.584011
2022-08-14T06:37:26.217Z,50.584019
2022-08-14T06:38:26.125Z,50.584042
2022-08-14T06:39:37.512Z,50.584072
2022-08-14T06:40:28.511Z,50.584114
2022-08-14T06:41:56.573Z,50.584110
2022-08-14T06:42:32.506Z,50.584122
2022-08-14T06:43:30.243Z,50.584118
2022-08-14T06:44:30.378Z,50.584061
2022-08-14T06:45:27.074Z,50.584053
2022-08-14T06:46:32.367Z,50.584007
2022-08-14T06:47:26.975Z,50.583969
2022-08-14T06:48:25.933Z,50.584015
2022-08-14T06:49:26.056Z,50.584026
2022-08-14T06:50:27.666Z,50.584061
2022-08-14T06:51:25.966Z,50.584076
2022-08-14T06:52:26.860Z,50.584080
2022-08-14T06:53:27.990Z,50.584068
2022-08-14T06:54:31.717Z,50.584084
2022-08-14T06:55:28.340Z,50.584084
2022-08-14T06:56:25.806Z,50.584068
2022-08-14T06:57:25.857Z,50.584068
2022-08-14T06:58:29.392Z,50.584076
2022-08-14T06:59:27.078Z,50.584068
2022-08-14T07:00:27.047Z,50.584080
2022-08-14T07:01:27.404Z,50.584087
2022-08-14T07:02:25.692Z,50.584110
2022-08-14T07:03:25.742Z,50.584129
2022-08-14T07:04:25.637Z,50.584087
2022-08-14T07:05:25.755Z,50.584087
2022-08-14T07:06:46.289Z,50.584072
2022-08-14T07:07:28.559Z,50.584053
2022-08-14T07:08:25.789Z,50.584087
2022-08-14T07:09:25.668Z,50.584084
2022-08-14T07:10:25.674Z,50.584068
2022-08-14T07:11:25.603Z,50.584084
2022-08-14T07:12:35.041Z,50.584061
2022-08-14T07:13:26.585Z,50.584034
2022-08-14T07:14:25.472Z,50.584023
2022-08-14T07:15:25.580Z,50.584019
2022-08-14T07:16:27.417Z,50.584095
2022-08-14T07:17:25.536Z,50.584110
2022-08-14T07:18:25.397Z,50.584103
2022-08-14T07:19:25.541Z,50.584084
2022-08-14T07:20:31.360Z,50.584087
2022-08-14T07:21:26.475Z,50.584095
2022-08-14T07:22:25.312Z,50.584114
2022-08-14T07:23:26.319Z,50.584091
2022-08-14T07:24:31.167Z,50.584110
2022-08-14T07:25:33.006Z,50.584126
2022-08-14T07:26:26.241Z,50.584183
2022-08-14T07:27:25.341Z,50.584179
2022-08-14T07:28:25.219Z,50.584156
2022-08-14T07:29:26.518Z,50.584198
2022-08-14T07:30:34.207Z,50.584141
2022-08-14T07:31:26.180Z,50.584194
2022-08-14T07:32:33.793Z,50.584145
2022-08-14T07:33:29.977Z,50.584091
2022-08-14T07:34:26.366Z,50.584198
2022-08-14T07:35:26.107Z,50.584179
2022-08-14T07:36:27.340Z,50.584145
2022-08-14T07:37:25.203Z,50.584091
2022-08-14T07:38:25.028Z,50.584129
2022-08-14T07:39:27.583Z,50.584141
2022-08-14T07:40:27.599Z,50.584095
2022-08-14T07:41:25.136Z,50.584064
2022-08-14T07:42:25.970Z,50.584145
2022-08-14T07:43:25.028Z,50.584080
2022-08-14T07:44:32.332Z,50.584080
2022-08-14T07:45:25.930Z,50.584076
2022-08-14T07:46:29.269Z,50.584072
2022-08-14T07:47:25.977Z,50.584064
2022-08-14T07:48:25.611Z,50.584061
2022-08-14T07:49:24.933Z,50.584091
2022-08-14T07:50:24.856Z,50.584122
2022-08-14T07:51:26.123Z,50.584099
2022-08-14T07:52:30.802Z,50.584076
2022-08-14T07:53:25.929Z,50.584087
2022-08-14T07:54:30.410Z,50.584061
2022-08-14T07:55:25.821Z,50.584084
2022-08-14T07:56:48.193Z,50.584126
2022-08-14T07:57:25.724Z,50.584137
2022-08-14T07:58:33.883Z,50.584084
2022-08-14T07:59:41.420Z,50.584095
2022-08-14T08:00:30.892Z,50.584087
2022-08-14T08:01:25.732Z,50.584110
2022-08-14T08:02:24.673Z,50.584133
2022-08-14T08:03:24.754Z,50.584118
2022-08-14T08:04:25.236Z,50.584133
2022-08-14T08:05:24.672Z,50.584145
2022-08-14T08:06:24.632Z,50.584114
2022-08-14T08:07:24.648Z,50.584053
2022-08-14T08:08:26.588Z,50.584057
2022-08-14T08:09:24.587Z,50.584057
2022-08-14T08:10:46.371Z,50.584126
2022-08-14T08:11:25.546Z,50.584003
2022-08-14T08:12:29.514Z,50.583847
2022-08-14T08:13:25.592Z,50.584034
2022-08-14T08:14:24.425Z,50.584084
2022-08-14T08:15:24.463Z,50.584091
2022-08-14T08:16:24.383Z,50.584106
2022-08-14T08:17:24.534Z,50.584118
2022-08-14T08:18:29.346Z,50.584110
2022-08-14T08:19:25.410Z,50.584110
2022-08-14T08:20:24.300Z,50.584106
2022-08-14T08:21:27.030Z,50.584068
2022-08-14T08:22:27.448Z,50.584091
2022-08-14T08:23:29.328Z,50.584110
2022-08-14T08:24:25.225Z,50.584122
2022-08-14T08:25:24.307Z,50.584152
2022-08-14T08:26:24.290Z,50.584148
2022-08-14T08:27:24.274Z,50.584148
2022-08-14T08:28:25.482Z,50.584114
2022-08-14T08:29:29.232Z,50.584126
2022-08-14T08:30:25.133Z,50.584110
2022-08-14T08:31:24.192Z,50.584126
2022-08-14T08:32:29.894Z,50.584164
2022-08-14T08:33:25.212Z,50.584145
2022-08-14T08:34:25.095Z,50.584106
2022-08-14T08:35:24.119Z,50.584087
2022-08-14T08:36:24.094Z,50.584049
2022-08-14T08:37:25.233Z,50.583946
2022-08-14T08:39:14.880Z,50.584011
2022-08-14T08:39:25.002Z,50.584072
2022-08-14T08:40:31.135Z,50.584095
2022-08-14T08:41:25.024Z,50.584103
2022-08-14T08:42:24.610Z,50.584076
2022-08-14T08:43:24.978Z,50.584045
2022-08-14T08:44:32.094Z,50.584122
2022-08-14T08:45:24.965Z,50.584133
2022-08-14T08:46:24.337Z,50.584064
2022-08-14T08:47:23.929Z,50.584084
2022-08-14T08:48:31.417Z,50.584126
2022-08-14T08:49:24.779Z,50.584084
2022-08-14T08:50:31.230Z,50.584057
2022-08-14T08:51:25.134Z,50.584133
2022-08-14T08:52:30.921Z,50.584133
2022-08-14T08:53:24.811Z,50.584164
2022-08-14T08:54:26.608Z,50.584126
2022-08-14T08:55:24.731Z,50.584103
2022-08-14T08:56:30.591Z,50.584106
2022-08-14T08:57:24.636Z,50.584122
2022-08-14T08:58:25.071Z,50.584137
2022-08-14T08:59:30.927Z,50.584160
2022-08-14T09:00:26.314Z,50.584145
2022-08-14T09:01:23.740Z,50.584122
2022-08-14T09:02:26.188Z,50.584068
2022-08-14T09:03:23.604Z,50.584118
2022-08-14T09:04:23.587Z,50.584103
2022-08-14T09:05:23.623Z,50.584141
2022-08-14T09:07:09.112Z,50.584156
2022-08-14T09:07:24.480Z,50.584133
2022-08-14T09:08:30.145Z,50.584057
2022-08-14T09:09:24.463Z,50.584122
2022-08-14T09:10:23.449Z,50.584160
2022-08-14T09:11:23.542Z,50.584156
2022-08-14T09:12:23.493Z,50.584099
2022-08-14T09:13:23.405Z,50.584141
2022-08-14T09:14:23.478Z,50.584152
2022-08-14T09:15:24.173Z,50.584122
2022-08-14T09:16:23.541Z,50.584187
2022-08-14T09:17:25.653Z,50.584213
2022-08-14T09:18:23.242Z,50.584213
2022-08-14T09:19:23.280Z,50.584534
2022-08-14T09:20:26.480Z,50.584381
2022-08-14T09:21:24.976Z,50.584236
2022-08-14T09:22:34.861Z,50.584251
2022-08-14T09:23:35.133Z,50.584236
2022-08-14T09:24:29.259Z,50.584244
2022-08-14T09:26:00.040Z,50.584267
2022-08-14T09:26:24.177Z,50.584202
2022-08-14T09:27:23.395Z,50.584198
2022-08-14T09:28:24.224Z,50.584190
2022-08-14T09:29:23.774Z,50.584194
2022-08-14T09:30:31.604Z,50.584198
2022-08-14T09:31:24.066Z,50.584187
2022-08-14T09:32:58.116Z,50.584175
2022-08-14T09:33:24.079Z,50.584175
2022-08-14T09:34:27.984Z,50.584167
2022-08-14T09:35:24.010Z,50.584141
2022-08-14T09:36:22.897Z,50.584114
2022-08-14T09:37:22.952Z,50.584126
2022-08-14T09:38:26.039Z,50.584129
2022-08-14T09:39:23.723Z,50.584145
2022-08-14T09:40:23.015Z,50.584198
2022-08-14T09:41:22.896Z,50.584145
2022-08-14T09:42:33.080Z,50.584175
2022-08-14T09:43:23.873Z,50.584106
2022-08-14T09:44:22.843Z,50.584114
2022-08-14T09:45:22.858Z,50.584145
2022-08-14T09:46:25.741Z,50.584103
2022-08-14T09:47:22.776Z,50.584148
2022-08-14T09:48:27.519Z,50.584171
2022-08-14T09:49:23.760Z,50.584156
2022-08-14T09:50:25.821Z,50.584160
2022-08-14T09:51:22.697Z,50.584141
2022-08-14T09:52:33.335Z,50.584156
2022-08-14T09:53:23.602Z,50.584148
2022-08-14T09:54:23.984Z,50.584137
2022-08-14T09:55:22.692Z,50.584110
2022-08-14T09:56:30.659Z,50.584091
2022-08-14T09:57:23.588Z,50.584053
2022-08-14T09:58:23.026Z,50.584095
2022-08-14T09:59:23.349Z,50.584141
2022-08-14T10:00:22.567Z,50.584152
2022-08-14T10:01:24.843Z,50.584106
2022-08-14T10:02:22.580Z,50.584129
2022-08-14T10:03:22.510Z,50.584122
2022-08-14T10:04:33.091Z,50.584114
2022-08-14T10:05:23.452Z,50.584106
2022-08-14T10:06:22.522Z,50.584122
2022-08-14T10:07:22.426Z,50.584080
2022-08-14T10:08:26.258Z,50.584137
2022-08-14T10:09:22.388Z,50.584156
2022-08-14T10:10:23.461Z,50.584095
2022-08-14T10:11:23.464Z,50.584164
2022-08-14T10:12:29.169Z,50.584141
2022-08-14T10:13:23.874Z,50.584179
2022-08-14T10:14:35.377Z,50.584164
2022-08-14T10:15:23.817Z,50.584091
2022-08-14T10:16:27.276Z,50.584064
2022-08-14T10:17:23.307Z,50.584061
2022-08-14T10:18:22.860Z,50.584064
2022-08-14T10:19:22.221Z,50.584061
2022-08-14T10:20:40.725Z,50.584103
2022-08-14T10:21:23.075Z,50.584084
2022-08-14T10:23:12.162Z,50.584087
2022-08-14T10:23:23.436Z,50.584091
2022-08-14T10:24:22.162Z,50.584122
2022-08-14T10:25:22.621Z,50.584099
2022-08-14T10:26:28.033Z,50.584114
2022-08-14T10:27:23.120Z,50.584099
2022-08-14T10:28:38.975Z,50.584106
2022-08-14T10:29:23.800Z,50.584080
2022-08-14T10:30:22.641Z,50.584084
2022-08-14T10:31:25.453Z,50.584106
2022-08-14T10:32:29.125Z,50.584110
2022-08-14T10:33:22.899Z,50.584106
2022-08-14T10:34:33.326Z,50.584091
2022-08-14T10:35:23.162Z,50.584118
2022-08-14T10:36:35.085Z,50.584087
2022-08-14T10:37:23.698Z,50.584080
2022-08-14T10:38:22.799Z,50.584084
2022-08-14T10:39:21.880Z,50.584095
2022-08-14T10:40:38.137Z,50.584076
2022-08-14T10:41:22.742Z,50.584057
2022-08-14T10:42:22.796Z,50.584106
2022-08-14T10:43:22.909Z,50.584103
2022-08-14T10:44:21.956Z,50.584110
2022-08-14T10:45:21.961Z,50.584084
2022-08-14T10:47:40.473Z,50.584129
2022-08-14T10:47:41.003Z,50.584084
2022-08-14T10:48:24.522Z,50.584137
2022-08-14T10:49:23.402Z,50.584106
2022-08-14T10:50:21.673Z,50.584133
2022-08-14T10:51:21.707Z,50.584072
2022-08-14T10:52:22.002Z,50.584110
2022-08-14T10:53:21.618Z,50.584137
2022-08-14T10:54:36.071Z,50.584091
2022-08-14T10:55:22.515Z,50.584126
2022-08-14T10:56:32.224Z,50.584106
2022-08-14T10:57:22.557Z,50.584145
2022-08-14T10:58:21.534Z,50.584084
2022-08-14T10:59:21.530Z,50.584126
2022-08-14T11:00:30.277Z,50.584106
2022-08-14T11:01:22.397Z,50.584110
2022-08-14T11:02:35.910Z,50.584114
2022-08-14T11:03:35.636Z,50.584118
2022-08-14T11:04:26.057Z,50.584110
2022-08-14T11:05:22.415Z,50.584137
2022-08-14T11:06:21.390Z,50.584099
2022-08-14T11:07:21.603Z,50.584156
2022-08-14T11:08:21.355Z,50.584164
2022-08-14T11:09:21.453Z,50.584156
2022-08-14T11:10:21.331Z,50.584103
2022-08-14T11:11:21.294Z,50.584118
2022-08-14T11:12:34.273Z,50.584137
2022-08-14T11:13:23.927Z,50.584129
2022-08-14T11:14:22.783Z,50.584141
2022-08-14T11:15:21.267Z,50.584133
2022-08-14T11:16:21.210Z,50.584141
2022-08-14T11:17:21.866Z,50.584095
2022-08-14T11:18:30.314Z,50.584167
2022-08-14T11:19:24.261Z,50.584190
2022-08-14T11:20:21.185Z,50.584175
2022-08-14T11:21:21.217Z,50.584171
2022-08-14T11:22:52.730Z,50.584160
2022-08-14T11:23:21.991Z,50.584202
2022-08-14T11:24:53.879Z,50.584171